Terminal Aerodrome Forecast
Issued by NWS Key West, FL

Home | Current Version | Previous Version | Text Only | Print | Product List | Glossary On
Versions: 1 2 3 4 5 6 7 8 9 10 11 12 13 14 15 16 17 18 19 20 21 22 23 24 25 26 27 28 29 30 31 32 33 34 35 36 37 38 39 40 41 42 43 44 45 46 47
000
FTUS42 KKEY 262200 AAB
TAFEYW
TAF AMD
KEYW 262237Z 2623/2718 36015G26KT P6SM FEW024 SCT030 BKN080
     FM271000 01015G22KT P6SM FEW080
     FM271700 03016KT P6SM SKC=

USA.gov is the U.S. government's official web portal to all federal, state and local government web resources and services.